Time;durP1;ratioP1;P1;durP2;ratioP2;P2;SDS_P1;SDS_P2;PMS_P1;PMS_P2;Temp;Humidity;BMP_temperature;BMP_pressure;BME280_temperature;BME280_humidity;BME280_pressure;Samples;Min_cycle;Max_cycle;Signal;HPM_P1;HPM_P2
2021/03/30 00:01:51;;;;;;;6.05;3.75;;;11.30;94.90;;;;;;4903737;29;20179;-94
2021/03/30 00:04:17;;;;;;;9.18;4.10;;;11.30;95.70;;;;;;4903423;29;20239;-94
2021/03/30 00:06:42;;;;;;;7.18;4.20;;;11.30;95.10;;;;;;4903180;29;20629;-96
2021/03/30 00:09:09;;;;;;;9.18;4.25;;;11.20;95.30;;;;;;4903251;29;20175;-95
2021/03/30 00:11:35;;;;;;;6.80;3.75;;;11.20;95.20;;;;;;4903331;29;20189;-96
2021/03/30 00:14:01;;;;;;;8.60;3.60;;;11.20;95.60;;;;;;4919510;29;20230;-94
2021/03/30 00:16:26;;;;;;;7.50;4.25;;;11.20;93.70;;;;;;4903392;29;20182;-93
2021/03/30 00:18:52;;;;;;;8.98;4.20;;;11.20;95.80;;;;;;4903672;29;20179;-92
2021/03/30 00:21:18;;;;;;;9.35;4.18;;;11.10;94.80;;;;;;4903641;29;20178;-94
2021/03/30 00:23:45;;;;;;;7.00;4.00;;;11.10;94.70;;;;;;4903098;29;20222;-92
2021/03/30 00:26:11;;;;;;;8.15;3.75;;;11.20;94.40;;;;;;4902409;29;20179;-93
2021/03/30 00:28:36;;;;;;;8.48;3.75;;;11.20;94.60;;;;;;4902960;29;20175;-93
2021/03/30 00:31:02;;;;;;;8.07;3.78;;;11.20;94.50;;;;;;4903233;29;20611;-93
2021/03/30 00:33:28;;;;;;;7.38;4.10;;;11.10;95.20;;;;;;4903115;29;20273;-92
2021/03/30 00:35:54;;;;;;;8.60;3.60;;;11.10;93.60;;;;;;4902631;29;20269;-94
2021/03/30 00:38:19;;;;;;;8.38;3.92;;;11.10;93.30;;;;;;4903145;29;20201;-93
2021/03/30 00:40:45;;;;;;;8.43;4.00;;;11.10;93.60;;;;;;4902683;29;20194;-92
2021/03/30 00:43:11;;;;;;;7.95;4.15;;;11.00;94.60;;;;;;4903097;29;20233;-94
2021/03/30 00:45:37;;;;;;;10.57;4.20;;;10.90;95.00;;;;;;4902541;29;20183;-94
2021/03/30 00:48:03;;;;;;;8.52;4.38;;;11.00;94.60;;;;;;4903349;29;20191;-93
2021/03/30 00:50:32;;;;;;;5.87;3.90;;;10.90;94.30;;;;;;4902709;29;20242;-95
2021/03/30 00:53:00;;;;;;;6.50;3.80;;;10.80;94.30;;;;;;4902462;29;20656;-95
2021/03/30 00:55:26;;;;;;;13.75;4.53;;;10.80;93.90;;;;;;4902672;29;20179;-92
2021/03/30 00:57:53;;;;;;;8.50;3.83;;;10.80;94.90;;;;;;4902706;29;20238;-92
2021/03/30 01:00:21;;;;;;;10.90;3.90;;;10.70;95.40;;;;;;4902461;29;20190;-93
2021/03/30 01:02:46;;;;;;;10.63;4.50;;;10.70;94.60;;;;;;4902553;29;20238;-92
2021/03/30 01:05:13;;;;;;;10.57;4.60;;;10.70;94.20;;;;;;4902465;29;20190;-93
2021/03/30 01:07:55;;;;;;;10.23;4.10;;;10.70;95.00;;;;;;4902211;29;20206;-96
2021/03/30 01:10:35;;;;;;;8.97;4.40;;;10.60;93.80;;;;;;4902483;29;20183;-92
2021/03/30 01:13:15;;;;;;;5.63;3.80;;;10.60;93.90;;;;;;4902681;29;20194;-95
2021/03/30 01:15:51;;;;;;;7.60;3.77;;;10.60;94.20;;;;;;4902275;29;20245;-93
2021/03/30 01:18:17;;;;;;;6.30;3.80;;;10.60;94.10;;;;;;4902243;29;20186;-94
2021/03/30 01:21:14;;;;;;;7.93;4.00;;;10.60;93.80;;;;;;4901448;29;20186;-95
2021/03/30 01:23:58;;;;;;;12.10;4.60;;;10.60;93.50;;;;;;4901789;29;20672;-92
2021/03/30 01:26:55;;;;;;;7.07;4.30;;;10.60;93.90;;;;;;4901892;29;20226;-93
2021/03/30 01:30:01;;;;;;;9.03;3.87;;;10.60;93.70;;;;;;4902191;29;20190;-96
2021/03/30 01:32:55;;;;;;;8.48;4.10;;;10.60;92.90;;;;;;4808799;29;20528;-96
2021/03/30 01:35:25;;;;;;;6.10;3.90;;;10.60;91.70;;;;;;4783157;29;20649;-95
2021/03/30 01:37:53;;;;;;;8.97;4.60;;;10.70;92.40;;;;;;4874430;29;20194;-94
2021/03/30 01:40:26;;;;;;;8.53;4.60;;;10.70;92.60;;;;;;4901604;29;20206;-95
2021/03/30 01:42:53;;;;;;;8.30;4.67;;;10.60;93.30;;;;;;4901974;29;20206;-96
2021/03/30 01:45:21;;;;;;;11.50;4.73;;;10.70;92.30;;;;;;4905657;29;20277;-95
2021/03/30 01:47:47;;;;;;;13.03;4.47;;;10.60;92.30;;;;;;4894132;29;20194;-95
2021/03/30 01:50:15;;;;;;;11.33;4.57;;;10.60;92.50;;;;;;4901443;29;20234;-95
2021/03/30 01:52:41;;;;;;;10.85;4.53;;;10.60;92.60;;;;;;4901844;29;20190;-95
2021/03/30 01:55:09;;;;;;;8.13;3.97;;;10.60;91.70;;;;;;4901329;29;20540;-96
2021/03/30 01:57:37;;;;;;;5.87;3.90;;;10.70;90.90;;;;;;4901640;29;20198;-93
2021/03/30 02:00:08;;;;;;;7.60;4.25;;;10.70;90.00;;;;;;4902030;29;20194;-94
2021/03/30 02:02:35;;;;;;;9.43;4.40;;;10.70;91.00;;;;;;4901595;29;20214;-93
2021/03/30 02:05:03;;;;;;;7.13;4.73;;;10.70;92.10;;;;;;4901755;29;20547;-93
2021/03/30 02:07:29;;;;;;;7.60;4.70;;;10.60;91.60;;;;;;4918556;29;20175;-91
2021/03/30 02:10:00;;;;;;;11.50;4.90;;;10.60;92.80;;;;;;4901558;29;20285;-93
2021/03/30 02:12:35;;;;;;;9.80;4.53;;;10.60;93.10;;;;;;4901351;29;20194;-92
2021/03/30 02:15:02;;;;;;;11.83;5.10;;;10.50;93.00;;;;;;4901452;29;20245;-92
2021/03/30 02:17:54;;;;;;;11.10;5.40;;;10.40;93.70;;;;;;4901598;29;20516;-94
2021/03/30 02:20:40;;;;;;;9.67;4.60;;;10.40;93.80;;;;;;4865933;29;20246;-92
2021/03/30 02:23:14;;;;;;;9.70;5.10;;;10.20;93.90;;;;;;4901486;29;20203;-92
2021/03/30 02:25:42;;;;;;;10.43;5.40;;;10.10;94.10;;;;;;4901261;29;20584;-93
2021/03/30 02:28:14;;;;;;;10.93;5.70;;;10.10;93.70;;;;;;4918263;29;20227;-92
2021/03/30 02:30:41;;;;;;;8.03;4.73;;;10.10;94.00;;;;;;4901264;29;20187;-93
2021/03/30 02:33:09;;;;;;;11.60;4.97;;;10.10;93.40;;;;;;4901408;29;20178;-93
2021/03/30 02:35:36;;;;;;;7.93;4.80;;;10.10;93.90;;;;;;4901306;29;20214;-92
2021/03/30 02:38:03;;;;;;;11.40;5.30;;;10.00;94.20;;;;;;4901466;29;20229;-92
2021/03/30 02:40:30;;;;;;;10.07;4.40;;;10.00;93.70;;;;;;4897802;29;20228;-93
2021/03/30 02:42:58;;;;;;;10.47;5.40;;;10.00;93.70;;;;;;4903756;29;20219;-92
2021/03/30 02:45:27;;;;;;;13.10;5.13;;;10.00;94.00;;;;;;4900096;29;20194;-92
2021/03/30 02:47:58;;;;;;;8.67;5.20;;;9.90;94.10;;;;;;4918066;29;20179;-92
2021/03/30 02:50:26;;;;;;;8.60;5.10;;;9.90;93.90;;;;;;4901318;29;20266;-93
2021/03/30 02:52:52;;;;;;;12.07;5.40;;;9.90;93.90;;;;;;4901352;29;20246;-94
2021/03/30 02:55:18;;;;;;;16.20;5.40;;;9.80;93.90;;;;;;4902600;29;20269;-95
2021/03/30 02:57:44;;;;;;;8.00;4.93;;;9.80;93.90;;;;;;4901934;29;20261;-96
2021/03/30 03:00:12;;;;;;;11.47;5.40;;;9.80;93.70;;;;;;4901063;29;20183;-91
2021/03/30 03:02:38;;;;;;;6.60;4.67;;;9.90;92.90;;;;;;4904015;29;20214;-94
2021/03/30 03:05:06;;;;;;;8.77;4.90;;;9.80;93.80;;;;;;4904889;29;20186;-96
2021/03/30 03:07:33;;;;;;;8.27;5.27;;;9.70;93.70;;;;;;4904647;29;20179;-92
2021/03/30 03:10:01;;;;;;;11.60;5.67;;;9.70;92.80;;;;;;4904602;29;20270;-93
2021/03/30 03:12:30;;;;;;;8.53;4.90;;;9.70;92.60;;;;;;4904149;29;20191;-95
2021/03/30 03:14:59;;;;;;;10.47;5.27;;;9.60;92.40;;;;;;4904449;29;20270;-91
2021/03/30 03:17:25;;;;;;;10.40;5.27;;;9.60;92.80;;;;;;4921525;29;20330;-93
2021/03/30 03:19:52;;;;;;;13.33;5.20;;;9.60;92.80;;;;;;4904519;29;20182;-93
2021/03/30 03:22:18;;;;;;;8.97;5.13;;;9.60;92.50;;;;;;4904199;29;20197;-92
2021/03/30 03:24:47;;;;;;;8.60;5.30;;;9.50;93.30;;;;;;4904063;29;20621;-92
2021/03/30 03:27:14;;;;;;;9.93;5.50;;;9.50;93.80;;;;;;4904101;29;20194;-95
2021/03/30 03:29:40;;;;;;;8.73;5.37;;;9.50;93.60;;;;;;4904297;29;20617;-93
2021/03/30 03:32:06;;;;;;;10.93;5.87;;;9.50;93.40;;;;;;4904143;29;20261;-92
2021/03/30 03:34:32;;;;;;;9.93;5.70;;;9.50;93.10;;;;;;4904251;29;20179;-92
2021/03/30 03:37:00;;;;;;;10.63;5.50;;;9.40;93.30;;;;;;4903910;29;20528;-94
2021/03/30 03:39:26;;;;;;;8.60;5.87;;;9.40;93.70;;;;;;4904374;29;20194;-95
2021/03/30 03:41:52;;;;;;;9.43;5.20;;;9.40;93.90;;;;;;4903905;29;20205;-96
2021/03/30 03:44:19;;;;;;;9.13;5.43;;;9.30;94.00;;;;;;4903758;29;20226;-94
2021/03/30 03:46:49;;;;;;;8.70;5.30;;;9.30;93.70;;;;;;4904295;29;20206;-95
2021/03/30 03:49:15;;;;;;;12.20;5.50;;;9.30;92.70;;;;;;4903925;29;20183;-94
2021/03/30 03:51:45;;;;;;;12.77;5.83;;;9.30;93.60;;;;;;4903621;29;20215;-95
2021/03/30 03:54:13;;;;;;;12.37;5.60;;;9.30;93.00;;;;;;4903587;29;20186;-94
2021/03/30 03:56:49;;;;;;;9.83;5.03;;;9.30;93.60;;;;;;4903388;29;20189;-93
2021/03/30 03:59:23;;;;;;;8.33;5.60;;;9.30;93.20;;;;;;4903957;29;20186;-93
2021/03/30 04:01:56;;;;;;;11.33;5.80;;;9.30;93.50;;;;;;4904051;29;20183;-92
2021/03/30 04:04:43;;;;;;;10.17;6.17;;;9.30;93.40;;;;;;4903303;29;20270;-93
2021/03/30 04:07:16;;;;;;;9.00;5.60;;;9.30;94.20;;;;;;4903605;29;20183;-95
2021/03/30 04:09:48;;;;;;;9.53;5.87;;;9.30;93.90;;;;;;4903753;29;20719;-95
2021/03/30 04:12:15;;;;;;;8.40;5.73;;;9.30;93.80;;;;;;4903263;29;20265;-93
2021/03/30 04:14:41;;;;;;;10.00;6.03;;;9.30;93.80;;;;;;4920164;29;20234;-94
2021/03/30 04:17:06;;;;;;;8.40;5.30;;;9.30;93.50;;;;;;4903182;29;20253;-93
2021/03/30 04:19:38;;;;;;;8.93;5.70;;;9.20;92.90;;;;;;4903255;29;20201;-93
2021/03/30 04:22:05;;;;;;;11.20;5.93;;;9.20;93.60;;;;;;4903356;29;20271;-94
2021/03/30 04:24:30;;;;;;;11.70;5.67;;;9.20;93.70;;;;;;4902927;29;20281;-94
2021/03/30 04:26:56;;;;;;;11.07;5.67;;;9.20;93.50;;;;;;4903016;29;20550;-93
2021/03/30 04:29:22;;;;;;;15.07;5.90;;;9.20;93.80;;;;;;4903061;29;20183;-93
2021/03/30 04:31:47;;;;;;;9.47;5.77;;;9.20;94.00;;;;;;4903435;29;20187;-94
2021/03/30 04:34:13;;;;;;;6.90;5.30;;;9.20;94.00;;;;;;4903241;29;20533;-93
2021/03/30 04:36:39;;;;;;;10.83;5.80;;;9.10;93.40;;;;;;4903095;29;20514;-93
2021/03/30 04:39:05;;;;;;;9.20;5.93;;;9.10;93.50;;;;;;4919622;29;20197;-93
2021/03/30 04:41:30;;;;;;;11.10;5.70;;;9.00;93.60;;;;;;4903203;29;20175;-94
2021/03/30 04:43:56;;;;;;;7.67;5.97;;;9.00;93.80;;;;;;4885846;29;20270;-95
2021/03/30 04:46:22;;;;;;;9.03;5.10;;;9.00;93.30;;;;;;4884058;29;20227;-95
2021/03/30 04:48:50;;;;;;;7.80;5.50;;;9.00;93.20;;;;;;4884598;29;20276;-94
2021/03/30 04:51:16;;;;;;;11.83;6.13;;;9.00;93.50;;;;;;4884120;29;20258;-95
2021/03/30 04:53:41;;;;;;;9.93;6.17;;;9.00;93.30;;;;;;4884027;29;20282;-92
2021/03/30 04:56:07;;;;;;;11.67;5.50;;;9.00;93.90;;;;;;4883543;29;20227;-94
2021/03/30 04:58:33;;;;;;;12.37;6.00;;;9.00;93.40;;;;;;4884059;29;20195;-93
2021/03/30 05:00:59;;;;;;;9.50;5.40;;;9.00;93.70;;;;;;4883777;29;20257;-92
2021/03/30 05:03:24;;;;;;;9.87;5.80;;;9.00;93.30;;;;;;4883824;29;20254;-93
2021/03/30 05:05:50;;;;;;;10.27;5.70;;;9.00;93.60;;;;;;4883591;29;20190;-93
2021/03/30 05:08:16;;;;;;;10.57;6.00;;;9.00;93.70;;;;;;4883983;29;20183;-92
2021/03/30 05:10:42;;;;;;;11.03;5.90;;;8.90;93.40;;;;;;4900312;29;20206;-92
2021/03/30 05:13:07;;;;;;;9.97;5.90;;;8.90;93.70;;;;;;4883667;29;20278;-93
2021/03/30 05:15:33;;;;;;;10.80;5.93;;;8.90;93.50;;;;;;4883452;29;20286;-93
2021/03/30 05:18:01;;;;;;;10.47;6.13;;;8.90;93.80;;;;;;4883979;29;20182;-92
2021/03/30 05:20:27;;;;;;;12.57;6.37;;;8.80;93.90;;;;;;4883686;29;20176;-91
2021/03/30 05:22:52;;;;;;;9.47;6.17;;;8.80;93.90;;;;;;4883571;29;20530;-92
2021/03/30 05:25:18;;;;;;;11.77;6.50;;;8.80;93.60;;;;;;4882865;29;20187;-93
2021/03/30 05:27:45;;;;;;;13.03;5.87;;;8.90;94.00;;;;;;4883361;29;20634;-92
2021/03/30 05:30:12;;;;;;;9.23;6.60;;;8.90;94.00;;;;;;4883017;29;20183;-93
2021/03/30 05:32:38;;;;;;;13.00;6.50;;;8.90;94.20;;;;;;4883383;29;20580;-95
2021/03/30 05:35:07;;;;;;;13.20;6.37;;;9.00;93.20;;;;;;4883329;29;20238;-92
2021/03/30 05:37:32;;;;;;;13.43;6.07;;;9.10;93.10;;;;;;4883561;29;20187;-94
2021/03/30 05:39:58;;;;;;;13.13;6.63;;;9.10;92.90;;;;;;4883542;29;20221;-93
2021/03/30 05:42:24;;;;;;;13.30;6.33;;;9.10;92.90;;;;;;4883065;29;20250;-94
2021/03/30 05:44:53;;;;;;;10.30;6.20;;;9.10;92.80;;;;;;4883266;29;20615;-95
2021/03/30 05:47:25;;;;;;;11.63;6.83;;;9.20;92.80;;;;;;4883156;29;20182;-94
2021/03/30 05:49:52;;;;;;;11.97;6.43;;;9.20;92.70;;;;;;4883656;29;20556;-93
2021/03/30 05:52:30;;;;;;;10.70;6.77;;;9.30;92.80;;;;;;4883488;29;20182;-93
2021/03/30 05:54:57;;;;;;;13.27;6.67;;;9.40;92.60;;;;;;4882615;29;20230;-94
2021/03/30 05:57:26;;;;;;;12.13;6.53;;;9.50;92.10;;;;;;4883146;29;20183;-93
2021/03/30 05:59:55;;;;;;;9.93;6.57;;;9.60;92.20;;;;;;4882997;29;20179;-94
2021/03/30 06:02:34;;;;;;;14.00;6.83;;;9.70;92.10;;;;;;4883422;29;20172;-95
2021/03/30 06:05:01;;;;;;;13.87;7.30;;;9.80;92.00;;;;;;4882937;29;20179;-94
2021/03/30 06:07:30;;;;;;;12.17;6.60;;;9.90;91.60;;;;;;4883185;29;20190;-94
2021/03/30 06:09:57;;;;;;;15.37;7.00;;;10.00;91.70;;;;;;4883645;29;20187;-93
2021/03/30 06:12:23;;;;;;;13.13;7.30;;;10.10;91.50;;;;;;4882808;29;20199;-93
2021/03/30 06:14:49;;;;;;;8.87;6.20;;;10.20;91.90;;;;;;4883261;29;20234;-93
2021/03/30 06:17:17;;;;;;;15.30;7.33;;;10.30;91.70;;;;;;4883024;29;20635;-95
2021/03/30 06:19:52;;;;;;;13.13;6.93;;;10.40;91.60;;;;;;4883233;29;20184;-93
2021/03/30 06:22:19;;;;;;;12.37;7.00;;;10.50;91.60;;;;;;4888234;29;20186;-94
2021/03/30 06:24:45;;;;;;;11.90;6.60;;;10.60;91.20;;;;;;4900135;29;20191;-95
2021/03/30 06:27:13;;;;;;;11.63;7.40;;;10.70;90.70;;;;;;4900942;29;20183;-95
2021/03/30 06:29:40;;;;;;;11.50;6.87;;;10.90;90.00;;;;;;4904972;29;20187;-95
2021/03/30 06:32:08;;;;;;;11.30;7.20;;;11.00;90.20;;;;;;4902737;29;20175;-95
2021/03/30 06:34:35;;;;;;;12.43;6.57;;;11.10;89.20;;;;;;4905281;29;20188;-94
2021/03/30 06:37:27;;;;;;;10.70;7.67;;;11.30;89.10;;;;;;4908146;29;20201;-96
2021/03/30 06:39:55;;;;;;;12.63;7.70;;;11.40;88.20;;;;;;4907891;29;20174;-96
2021/03/30 06:42:43;;;;;;;12.90;7.30;;;11.50;86.80;;;;;;4908013;29;20208;-95
2021/03/30 06:45:22;;;;;;;12.27;7.83;;;11.60;86.70;;;;;;4907196;29;20528;-96
2021/03/30 06:47:52;;;;;;;16.97;7.83;;;11.70;85.60;;;;;;4912244;29;20237;-96
2021/03/30 06:50:23;;;;;;;14.00;7.87;;;11.80;85.40;;;;;;4909298;29;20178;-96
2021/03/30 06:52:49;;;;;;;11.33;7.70;;;11.80;85.40;;;;;;4907996;29;20230;-96
2021/03/30 06:55:26;;;;;;;12.33;7.80;;;11.90;86.10;;;;;;4907186;29;20183;-95
2021/03/30 06:57:51;;;;;;;15.17;8.17;;;12.00;86.00;;;;;;4894945;29;20178;-93
2021/03/30 07:00:32;;;;;;;14.33;8.00;;;12.10;85.70;;;;;;4911585;29;20266;-95
2021/03/30 07:02:58;;;;;;;14.27;7.80;;;12.10;85.00;;;;;;4907529;29;20230;-95
2021/03/30 07:05:40;;;;;;;12.97;7.77;;;12.20;86.00;;;;;;4913461;29;20186;-96
2021/03/30 07:08:19;;;;;;;14.23;8.40;;;12.30;85.40;;;;;;4910095;29;20238;-94
2021/03/30 07:10:55;;;;;;;14.07;8.30;;;12.30;84.90;;;;;;4913059;29;20175;-95
2021/03/30 07:13:52;;;;;;;11.10;7.77;;;12.40;84.80;;;;;;4928123;23;20229;-91
2021/03/30 07:16:32;;;;;;;13.97;7.90;;;12.50;84.20;;;;;;4923057;29;20186;-92
2021/03/30 07:19:06;;;;;;;14.23;8.38;;;12.50;85.40;;;;;;4922969;29;20170;-91
2021/03/30 07:22:17;;;;;;;14.68;7.38;;;12.60;84.00;;;;;;4922472;29;20224;-90
2021/03/30 07:25:09;;;;;;;12.80;8.20;;;12.70;84.80;;;;;;4909438;29;20221;-90
2021/03/30 07:28:02;;;;;;;21.87;8.93;;;12.80;85.60;;;;;;4922140;29;20182;-94
2021/03/30 07:30:30;;;;;;;14.00;8.77;;;12.90;85.60;;;;;;4921392;29;20643;-92
2021/03/30 07:33:25;;;;;;;17.17;9.33;;;13.00;85.40;;;;;;4920865;29;20169;-91
2021/03/30 07:35:54;;;;;;;12.30;8.32;;;13.10;85.20;;;;;;4920421;29;20190;-91
2021/03/30 07:38:21;;;;;;;14.18;7.85;;;13.20;85.10;;;;;;4922159;29;20181;-93
2021/03/30 07:40:48;;;;;;;16.13;8.82;;;13.30;84.10;;;;;;4921972;29;20198;-90
2021/03/30 07:43:26;;;;;;;14.88;9.45;;;13.40;82.00;;;;;;4921952;29;20197;-91
2021/03/30 07:45:56;;;;;;;16.63;8.73;;;13.50;82.70;;;;;;4921778;29;20176;-93
2021/03/30 07:48:25;;;;;;;18.42;9.70;;;13.50;82.90;;;;;;4921371;29;20174;-91
2021/03/30 07:51:07;;;;;;;16.23;9.25;;;13.70;82.10;;;;;;4921664;29;20292;-91
2021/03/30 07:54:06;;;;;;;16.23;9.93;;;13.60;81.00;;;;;;4921770;29;20575;-91
2021/03/30 07:56:38;;;;;;;15.05;9.55;;;13.70;81.30;;;;;;4926907;29;20276;-92
2021/03/30 07:59:04;;;;;;;18.83;9.85;;;13.70;81.10;;;;;;4940754;29;20312;-93
2021/03/30 08:01:32;;;;;;;19.00;9.82;;;13.80;81.00;;;;;;4940569;29;20197;-90
2021/03/30 08:04:00;;;;;;;18.80;9.93;;;13.80;80.60;;;;;;4940518;29;20302;-91
2021/03/30 08:06:47;;;;;;;15.10;9.38;;;13.90;80.50;;;;;;4940517;29;20170;-92
2021/03/30 08:09:14;;;;;;;22.85;10.20;;;13.90;82.30;;;;;;4940778;29;20161;-94
2021/03/30 08:11:41;;;;;;;19.52;10.23;;;14.00;81.30;;;;;;4940459;29;20570;-90
2021/03/30 08:14:16;;;;;;;20.50;10.18;;;14.00;80.50;;;;;;4937194;29;20634;-90
2021/03/30 08:16:42;;;;;;;18.17;10.15;;;14.10;80.80;;;;;;4937768;29;20184;-91
2021/03/30 08:19:12;;;;;;;19.85;10.52;;;14.10;79.70;;;;;;4940413;29;20185;-91
2021/03/30 08:21:55;;;;;;;19.77;9.95;;;14.30;80.30;;;;;;4940254;29;20201;-91
2021/03/30 08:24:42;;;;;;;17.58;10.65;;;14.30;79.20;;;;;;4940366;29;20268;-91
2021/03/30 08:27:30;;;;;;;16.35;10.30;;;14.40;80.10;;;;;;4913301;29;20194;-93
2021/03/30 08:30:00;;;;;;;20.83;10.57;;;14.40;79.50;;;;;;4921103;29;20182;-90
2021/03/30 08:32:28;;;;;;;20.02;10.90;;;14.50;79.90;;;;;;4921316;29;20194;-91
2021/03/30 08:34:54;;;;;;;18.02;10.68;;;14.60;79.50;;;;;;4921300;29;20174;-89
2021/03/30 08:37:22;;;;;;;18.33;10.38;;;14.70;81.70;;;;;;4920879;29;20548;-89
2021/03/30 08:39:48;;;;;;;18.45;10.80;;;14.80;79.90;;;;;;4921002;29;20182;-89
2021/03/30 08:42:18;;;;;;;18.02;10.73;;;14.80;79.30;;;;;;4937728;29;20194;-90
2021/03/30 08:44:59;;;;;;;18.55;10.65;;;14.90;80.60;;;;;;4920811;29;20208;-90
2021/03/30 08:47:44;;;;;;;17.75;10.38;;;15.10;80.70;;;;;;4920860;29;20539;-91
2021/03/30 08:50:24;;;;;;;17.58;10.95;;;15.20;78.40;;;;;;4920608;29;20225;-90
2021/03/30 08:52:52;;;;;;;18.00;10.18;;;15.30;79.40;;;;;;4920872;29;20192;-92
2021/03/30 08:55:30;;;;;;;20.17;10.32;;;15.40;76.40;;;;;;4920733;29;20170;-90
2021/03/30 08:57:59;;;;;;;19.60;10.65;;;15.40;76.00;;;;;;4920391;29;20178;-90
2021/03/30 09:00:26;;;;;;;17.25;9.80;;;15.40;76.20;;;;;;4919730;29;20182;-92
2021/03/30 09:03:03;;;;;;;17.83;9.57;;;15.40;76.90;;;;;;4920551;29;20206;-90
2021/03/30 09:05:38;;;;;;;19.05;9.90;;;15.60;76.60;;;;;;4920438;29;20210;-90
2021/03/30 09:08:04;;;;;;;22.65;10.00;;;15.70;76.00;;;;;;4920537;29;20180;-90
2021/03/30 09:10:30;;;;;;;17.48;9.35;;;15.90;75.60;;;;;;4920370;29;20182;-91
2021/03/30 09:13:16;;;;;;;16.90;9.80;;;16.00;76.90;;;;;;4919969;29;20230;-92
2021/03/30 09:15:43;;;;;;;18.90;10.45;;;16.00;74.30;;;;;;4920439;29;20210;-93
2021/03/30 09:18:09;;;;;;;19.38;10.77;;;16.10;76.10;;;;;;4920320;29;20173;-92
2021/03/30 09:20:37;;;;;;;21.45;10.38;;;16.20;74.40;;;;;;4920119;29;20181;-92
2021/03/30 09:23:23;;;;;;;19.80;10.25;;;16.30;74.80;;;;;;4920006;29;20205;-91
2021/03/30 09:25:51;;;;;;;19.58;10.98;;;16.40;75.10;;;;;;4919858;29;20197;-92
2021/03/30 09:28:23;;;;;;;20.27;10.25;;;16.50;75.10;;;;;;4920110;29;20531;-90
2021/03/30 09:30:50;;;;;;;18.80;9.75;;;16.40;74.80;;;;;;4920161;29;20333;-93
2021/03/30 09:33:16;;;;;;;20.77;10.77;;;16.40;75.70;;;;;;4920296;29;20181;-89
2021/03/30 09:35:42;;;;;;;19.50;10.57;;;16.40;75.70;;;;;;4919973;29;20170;-91
2021/03/30 09:38:08;;;;;;;20.27;10.65;;;16.40;76.50;;;;;;4919943;29;20229;-91
2021/03/30 09:40:40;;;;;;;19.35;10.35;;;16.60;76.70;;;;;;4919957;29;20705;-89
2021/03/30 09:43:11;;;;;;;17.80;10.43;;;16.50;76.40;;;;;;4919667;29;20201;-92
2021/03/30 09:45:39;;;;;;;23.48;10.93;;;16.70;75.00;;;;;;4919660;29;20182;-91
2021/03/30 09:48:08;;;;;;;18.95;10.30;;;16.80;76.20;;;;;;4919831;29;20605;-91
2021/03/30 09:50:44;;;;;;;21.52;9.93;;;16.80;76.40;;;;;;4936677;29;20162;-92
2021/03/30 09:53:10;;;;;;;19.00;9.95;;;16.80;76.50;;;;;;4920021;29;20522;-93
2021/03/30 09:55:42;;;;;;;19.25;10.43;;;16.90;76.60;;;;;;4919910;29;20210;-93
2021/03/30 09:58:16;;;;;;;21.88;10.77;;;17.00;77.50;;;;;;4919826;29;20181;-92
2021/03/30 10:00:48;;;;;;;23.90;10.75;;;17.10;76.90;;;;;;4919785;29;20201;-90
2021/03/30 10:03:15;;;;;;;21.75;9.90;;;17.20;78.80;;;;;;4919902;29;20206;-91
2021/03/30 10:05:42;;;;;;;22.00;10.27;;;17.20;75.90;;;;;;4919886;29;20166;-92
2021/03/30 10:08:29;;;;;;;20.67;10.15;;;17.30;76.50;;;;;;4919827;29;20241;-91
2021/03/30 10:10:59;;;;;;;21.85;9.88;;;17.40;79.20;;;;;;4921942;29;20209;-92
2021/03/30 10:13:30;;;;;;;18.88;10.32;;;17.50;76.20;;;;;;4923405;29;20233;-91
2021/03/30 10:16:00;;;;;;;20.60;10.40;;;17.70;75.90;;;;;;4923660;29;20185;-94
2021/03/30 10:18:27;;;;;;;18.45;9.68;;;17.90;74.40;;;;;;4923582;29;20189;-94
2021/03/30 10:21:13;;;;;;;19.10;9.82;;;18.00;76.60;;;;;;4923473;29;20208;-90
2021/03/30 10:23:44;;;;;;;19.17;9.75;;;18.10;75.90;;;;;;4923485;29;20300;-91
2021/03/30 10:26:26;;;;;;;20.35;9.80;;;18.10;78.00;;;;;;4923561;29;20178;-92
2021/03/30 10:28:55;;;;;;;20.45;10.30;;;18.10;76.80;;;;;;4923532;29;20178;-89
2021/03/30 10:31:52;;;;;;;21.52;10.82;;;18.10;76.00;;;;;;4923636;29;20202;-92
2021/03/30 10:34:33;;;;;;;19.70;9.55;;;18.20;76.20;;;;;;4923390;29;20245;-90
2021/03/30 10:37:01;;;;;;;17.42;10.23;;;18.40;77.40;;;;;;4923425;29;20178;-93
2021/03/30 10:39:33;;;;;;;15.70;8.55;;;18.50;77.20;;;;;;4923511;29;20190;-91
2021/03/30 10:42:11;;;;;;;16.80;9.30;;;18.60;77.10;;;;;;4922997;29;20686;-90
2021/03/30 10:44:39;;;;;;;17.50;9.43;;;18.80;77.10;;;;;;4923373;29;20607;-91
2021/03/30 10:47:20;;;;;;;17.63;8.90;;;18.80;76.70;;;;;;4922987;29;20174;-91
2021/03/30 10:49:56;;;;;;;16.08;9.43;;;18.60;75.90;;;;;;4923055;29;20181;-92
2021/03/30 10:52:26;;;;;;;23.65;9.60;;;18.70;76.80;;;;;;4922889;29;20200;-94
2021/03/30 10:54:56;;;;;;;16.98;9.50;;;18.60;76.40;;;;;;4922924;29;20638;-91
2021/03/30 10:57:25;;;;;;;15.88;9.38;;;18.60;77.10;;;;;;4922915;29;20583;-91
2021/03/30 10:59:51;;;;;;;18.83;9.52;;;18.60;77.40;;;;;;4939928;29;20158;-91
2021/03/30 11:02:18;;;;;;;19.60;9.63;;;18.60;78.00;;;;;;4922698;29;20217;-93
2021/03/30 11:04:44;;;;;;;18.65;10.00;;;18.60;76.80;;;;;;4922869;29;20265;-92
2021/03/30 11:07:11;;;;;;;18.48;9.10;;;18.60;77.40;;;;;;4922708;29;20309;-90
2021/03/30 11:09:37;;;;;;;17.45;8.95;;;18.70;76.70;;;;;;4939726;29;20177;-92
2021/03/30 11:12:04;;;;;;;13.25;7.82;;;18.70;76.90;;;;;;4922588;29;20205;-92
2021/03/30 11:14:30;;;;;;;22.88;8.82;;;18.80;76.50;;;;;;4922371;29;20229;-90
2021/03/30 11:16:56;;;;;;;15.98;8.50;;;18.90;76.50;;;;;;4922626;29;20649;-93
2021/03/30 11:19:23;;;;;;;17.67;8.82;;;19.00;77.50;;;;;;4939689;29;20170;-91
2021/03/30 11:21:49;;;;;;;19.70;8.75;;;18.90;78.40;;;;;;4921380;29;20201;-92
2021/03/30 11:24:18;;;;;;;19.27;8.95;;;19.00;75.60;;;;;;4922369;29;20570;-92
2021/03/30 11:26:46;;;;;;;19.38;8.90;;;19.10;76.30;;;;;;4922422;29;20643;-93
2021/03/30 11:29:19;;;;;;;21.23;9.30;;;19.20;74.90;;;;;;4922293;29;20180;-91
2021/03/30 11:34:27;;;;;;;22.08;9.18;;;19.40;76.50;;;;;;4939500;29;20166;-91
2021/03/30 11:36:58;;;;;;;15.43;8.63;;;19.40;75.30;;;;;;4921987;29;20204;-93
2021/03/30 11:39:24;;;;;;;18.55;8.82;;;19.50;73.90;;;;;;4922252;29;20578;-91
2021/03/30 11:41:50;;;;;;;21.27;9.20;;;19.50;75.80;;;;;;4921999;29;20206;-93
2021/03/30 11:44:16;;;;;;;19.75;9.40;;;19.60;75.80;;;;;;4921845;29;20300;-91
2021/03/30 11:46:41;;;;;;;19.33;9.07;;;19.70;76.20;;;;;;4922016;29;20170;-92
2021/03/30 11:49:07;;;;;;;17.67;8.90;;;19.80;74.40;;;;;;4921923;29;20174;-93
2021/03/30 11:51:33;;;;;;;16.55;9.48;;;19.90;72.70;;;;;;4921859;29;20320;-93
2021/03/30 11:53:59;;;;;;;17.92;9.13;;;20.10;73.50;;;;;;4922035;29;20182;-91
2021/03/30 11:56:25;;;;;;;19.23;10.18;;;20.20;75.00;;;;;;4921542;29;20277;-92
2021/03/30 11:58:50;;;;;;;17.38;9.00;;;20.10;73.00;;;;;;4921648;29;20174;-91
2021/03/30 12:01:16;;;;;;;20.75;10.48;;;20.00;72.00;;;;;;4921449;29;20212;-93
2021/03/30 12:03:42;;;;;;;18.80;9.40;;;20.00;73.70;;;;;;4938627;29;20194;-92
2021/03/30 12:06:08;;;;;;;18.48;10.27;;;19.90;71.90;;;;;;4921692;29;20184;-94
2021/03/30 12:08:34;;;;;;;21.15;10.23;;;19.90;72.70;;;;;;4921714;29;20265;-93
2021/03/30 12:11:00;;;;;;;17.25;9.70;;;20.00;72.40;;;;;;4921531;29;20198;-92
2021/03/30 12:13:27;;;;;;;19.48;9.90;;;20.00;72.70;;;;;;4921340;29;20304;-90
2021/03/30 12:15:53;;;;;;;21.55;9.95;;;20.20;74.70;;;;;;4921407;29;20201;-93
2021/03/30 12:18:18;;;;;;;17.83;9.80;;;20.30;74.40;;;;;;4921556;29;20221;-93
2021/03/30 12:20:44;;;;;;;16.20;9.43;;;20.40;72.40;;;;;;4921325;29;20253;-90
2021/03/30 12:23:11;;;;;;;21.08;10.10;;;20.40;71.40;;;;;;4921418;29;20238;-91
2021/03/30 12:25:36;;;;;;;21.77;10.68;;;20.60;70.90;;;;;;4921390;29;20178;-92
2021/03/30 12:28:02;;;;;;;16.80;9.98;;;20.80;67.30;;;;;;4938027;29;20289;-90
2021/03/30 12:30:28;;;;;;;23.55;10.35;;;20.80;69.60;;;;;;4921179;29;20170;-91
2021/03/30 12:32:54;;;;;;;19.60;10.30;;;20.70;69.80;;;;;;4920959;29;20181;-93
2021/03/30 12:35:20;;;;;;;21.20;11.27;;;20.70;69.60;;;;;;4921248;29;20257;-92
2021/03/30 12:37:45;;;;;;;19.25;10.77;;;20.60;69.20;;;;;;4921344;29;20241;-93
2021/03/30 12:40:11;;;;;;;21.77;10.63;;;20.70;66.90;;;;;;4921134;29;20610;-89
2021/03/30 12:42:37;;;;;;;16.13;10.30;;;20.60;69.80;;;;;;4920919;29;20296;-93
2021/03/30 12:45:04;;;;;;;17.60;10.27;;;20.70;71.70;;;;;;4920839;29;20623;-94
2021/03/30 12:47:29;;;;;;;18.35;11.43;;;20.70;70.00;;;;;;4920706;29;20541;-89
2021/03/30 12:49:55;;;;;;;21.33;10.75;;;20.60;70.80;;;;;;4921078;29;20229;-91
2021/03/30 12:52:22;;;;;;;20.63;11.30;;;20.50;70.20;;;;;;4920868;29;20206;-93
2021/03/30 12:54:48;;;;;;;22.38;10.38;;;20.50;69.80;;;;;;4920906;29;20174;-93
2021/03/30 12:57:13;;;;;;;19.80;10.95;;;20.60;70.40;;;;;;4920568;29;20665;-92
2021/03/30 12:59:41;;;;;;;22.30;11.25;;;20.70;70.10;;;;;;4921013;29;20585;-91